Etusivu
METAR-TAF:

METAR-TAF

Lentoasemat :

Mora Municipal Airport

Mora, Minnesota, Yhdysvallat

Leveyspiiri: 45-53-10N, Pituuspiiri: 093-16-18W, korkeus merenpinnasta: 309 m

Tämänhetkinen sää

Tämä raportti tehtiin 13 minuuttia sitten, kello 00.38 UTC
Tuuli 7 kn pohjoisesta
Lämpötila -12°C
Kosteus 61%
Ilmanpaine 1035 hPa
Näkyvyys: 16.1 km
Hajanaisia pilviä 500 ft:n korkeudessa
Hajanaisia pilviä 1000 ft:n korkeudessa
Hajonneita pilviä 1700 ft:n korkeudessa

METAR: KJMR 120038Z AUTO 35007KT 10SM SCT005 SCT010 BKN017 M12/M18 A3057 RMK AO2

Aika: 18:51 (00:51 UTC)


TAF: puuttuu

Säähavainnot ja -ennusteet yli 4000 lentoasemalta (METAR- ja TAF-raportit).

Käytössä olevat sääasemat on merkitty karttaan keltaisilla ja punaisilla pisteillä.

Aseta hiiri pisteen päälle nähdäksesi sääaseman nimen.

Klikkaa sitten nähdäksesi säähavainnot ja -ennusteet.

Kartan vaihtaminen: klikkaa mustalla rastilla varustettuja vihreitä pisteitä, niin voit zoomata sisään; viivalla varustettua vihreää pistettä, niin voit zoomata ulos tai vihreitä nuolia, niin pääset viereisille kartoille.


METAR-TAF: